sensor_id;sensor_type;location;lat;lon;timestamp;pressure;altitude;pressure_sealevel;temperature;humidity
57594;BME280;43423;46.510;6.686;2024-03-17T00:00:16;97084.44;;;9.83;82.19
57594;BME280;43423;46.510;6.686;2024-03-17T00:03:04;97087.50;;;9.85;82.72
57594;BME280;43423;46.510;6.686;2024-03-17T00:05:29;97080.19;;;9.72;81.05
57594;BME280;43423;46.510;6.686;2024-03-17T00:07:55;97084.91;;;9.81;81.36
57594;BME280;43423;46.510;6.686;2024-03-17T00:10:20;97077.56;;;9.78;80.12
57594;BME280;43423;46.510;6.686;2024-03-17T00:12:46;97083.22;;;9.84;80.16
57594;BME280;43423;46.510;6.686;2024-03-17T00:15:11;97072.84;;;9.78;80.26
57594;BME280;43423;46.510;6.686;2024-03-17T00:17:37;97064.00;;;9.74;81.74
57594;BME280;43423;46.510;6.686;2024-03-17T00:20:03;97059.72;;;9.83;81.08
57594;BME280;43423;46.510;6.686;2024-03-17T00:22:36;97061.72;;;9.73;81.71
57594;BME280;43423;46.510;6.686;2024-03-17T00:25:07;97060.78;;;9.76;80.64
57594;BME280;43423;46.510;6.686;2024-03-17T00:27:34;97058.34;;;9.78;80.48
57594;BME280;43423;46.510;6.686;2024-03-17T00:30:05;97059.44;;;9.81;81.11
57594;BME280;43423;46.510;6.686;2024-03-17T00:32:35;97053.16;;;9.71;83.17
57594;BME280;43423;46.510;6.686;2024-03-17T00:35:01;97046.94;;;9.79;81.59
57594;BME280;43423;46.510;6.686;2024-03-17T00:37:27;97044.91;;;9.71;80.30
57594;BME280;43423;46.510;6.686;2024-03-17T00:39:52;97038.66;;;9.70;80.68
57594;BME280;43423;46.510;6.686;2024-03-17T00:42:18;97046.00;;;9.73;82.01
57594;BME280;43423;46.510;6.686;2024-03-17T00:44:44;97034.84;;;9.77;81.20
57594;BME280;43423;46.510;6.686;2024-03-17T00:47:10;97033.03;;;9.74;82.09
57594;BME280;43423;46.510;6.686;2024-03-17T00:49:35;97034.09;;;9.67;82.71
57594;BME280;43423;46.510;6.686;2024-03-17T00:52:01;97033.63;;;9.69;83.28
57594;BME280;43423;46.510;6.686;2024-03-17T00:54:26;97036.25;;;9.72;82.42
57594;BME280;43423;46.510;6.686;2024-03-17T00:56:52;97042.03;;;9.65;83.33
57594;BME280;43423;46.510;6.686;2024-03-17T00:59:18;97035.34;;;9.57;81.76
57594;BME280;43423;46.510;6.686;2024-03-17T01:01:43;97038.84;;;9.67;81.10
57594;BME280;43423;46.510;6.686;2024-03-17T01:04:09;97038.06;;;9.66;81.62
57594;BME280;43423;46.510;6.686;2024-03-17T01:06:35;97040.81;;;9.66;80.62
57594;BME280;43423;46.510;6.686;2024-03-17T01:09:01;97038.06;;;9.66;81.86
57594;BME280;43423;46.510;6.686;2024-03-17T01:11:27;97043.88;;;9.50;83.49
57594;BME280;43423;46.510;6.686;2024-03-17T01:13:52;97043.69;;;9.44;84.68
57594;BME280;43423;46.510;6.686;2024-03-17T01:16:18;97043.84;;;9.32;85.46
57594;BME280;43423;46.510;6.686;2024-03-17T01:18:44;97040.78;;;9.39;84.97
57594;BME280;43423;46.510;6.686;2024-03-17T01:21:11;97033.19;;;9.43;84.45
57594;BME280;43423;46.510;6.686;2024-03-17T01:23:37;97031.34;;;9.40;84.15
57594;BME280;43423;46.510;6.686;2024-03-17T01:26:02;97035.31;;;9.39;83.36
57594;BME280;43423;46.510;6.686;2024-03-17T01:28:28;97036.81;;;9.40;83.60
57594;BME280;43423;46.510;6.686;2024-03-17T01:30:54;97029.22;;;9.35;83.88
57594;BME280;43423;46.510;6.686;2024-03-17T01:33:19;97029.81;;;9.30;85.10
57594;BME280;43423;46.510;6.686;2024-03-17T01:35:46;97022.50;;;9.36;83.40
57594;BME280;43423;46.510;6.686;2024-03-17T01:38:11;97027.53;;;9.37;83.78
57594;BME280;43423;46.510;6.686;2024-03-17T01:40:37;97015.97;;;9.33;83.10
57594;BME280;43423;46.510;6.686;2024-03-17T01:43:03;97014.28;;;9.36;82.51
57594;BME280;43423;46.510;6.686;2024-03-17T01:45:30;97018.53;;;9.46;82.22
57594;BME280;43423;46.510;6.686;2024-03-17T01:47:58;97003.91;;;9.49;82.15
57594;BME280;43423;46.510;6.686;2024-03-17T01:50:26;97014.91;;;9.49;81.42
57594;BME280;43423;46.510;6.686;2024-03-17T01:52:56;97015.50;;;9.44;82.13
57594;BME280;43423;46.510;6.686;2024-03-17T01:55:26;97018.84;;;9.39;84.85
57594;BME280;43423;46.510;6.686;2024-03-17T01:57:52;97018.53;;;9.46;85.27
57594;BME280;43423;46.510;6.686;2024-03-17T02:00:19;97006.19;;;9.41;83.78
57594;BME280;43423;46.510;6.686;2024-03-17T02:02:44;97015.50;;;9.44;82.78
57594;BME280;43423;46.510;6.686;2024-03-17T02:05:10;97019.00;;;9.44;83.25
57594;BME280;43423;46.510;6.686;2024-03-17T02:07:36;97015.19;;;9.42;84.18
57594;BME280;43423;46.510;6.686;2024-03-17T02:10:02;97010.00;;;9.44;84.60
57594;BME280;43423;46.510;6.686;2024-03-17T02:12:31;96998.25;;;9.43;84.96
57594;BME280;43423;46.510;6.686;2024-03-17T02:14:58;97004.81;;;9.46;84.01
57594;BME280;43423;46.510;6.686;2024-03-17T02:17:24;97001.31;;;9.45;84.20
57594;BME280;43423;46.510;6.686;2024-03-17T02:19:51;97004.69;;;9.49;83.78
57594;BME280;43423;46.510;6.686;2024-03-17T02:22:20;96998.72;;;9.51;82.39
57594;BME280;43423;46.510;6.686;2024-03-17T02:24:46;96988.34;;;9.46;82.43
57594;BME280;43423;46.510;6.686;2024-03-17T02:27:11;96991.38;;;9.39;83.52
57594;BME280;43423;46.510;6.686;2024-03-17T02:29:37;96991.22;;;9.24;84.87
57594;BME280;43423;46.510;6.686;2024-03-17T02:32:05;96988.34;;;9.28;86.01
57594;BME280;43423;46.510;6.686;2024-03-17T02:34:36;96986.81;;;9.17;87.96
57594;BME280;43423;46.510;6.686;2024-03-17T02:37:03;96987.88;;;9.11;88.70
57594;BME280;43423;46.510;6.686;2024-03-17T02:39:30;96979.94;;;9.13;88.02
57594;BME280;43423;46.510;6.686;2024-03-17T02:42:00;96976.44;;;9.21;84.94
57594;BME280;43423;46.510;6.686;2024-03-17T02:44:27;96979.81;;;9.26;84.56
57594;BME280;43423;46.510;6.686;2024-03-17T02:46:53;96984.53;;;9.25;84.65
57594;BME280;43423;46.510;6.686;2024-03-17T02:49:18;96983.47;;;9.22;83.03
57594;BME280;43423;46.510;6.686;2024-03-17T02:51:44;96988.66;;;9.20;84.49
57594;BME280;43423;46.510;6.686;2024-03-17T02:54:10;96985.88;;;9.02;86.74
57594;BME280;43423;46.510;6.686;2024-03-17T02:56:35;96983.44;;;9.04;86.43
57594;BME280;43423;46.510;6.686;2024-03-17T02:59:01;96981.63;;;9.10;83.79
57594;BME280;43423;46.510;6.686;2024-03-17T03:01:26;96969.75;;;9.13;84.91
57594;BME280;43423;46.510;6.686;2024-03-17T03:03:52;96972.78;;;9.15;84.04
57594;BME280;43423;46.510;6.686;2024-03-17T03:06:18;96964.53;;;9.06;83.76
57594;BME280;43423;46.510;6.686;2024-03-17T03:08:45;96956.03;;;9.13;82.69
57594;BME280;43423;46.510;6.686;2024-03-17T03:11:14;96956.03;;;9.13;82.27
57594;BME280;43423;46.510;6.686;2024-03-17T03:13:41;96953.56;;;8.97;82.31
57594;BME280;43423;46.510;6.686;2024-03-17T03:16:08;96958.13;;;8.91;82.10
57594;BME280;43423;46.510;6.686;2024-03-17T03:18:35;96953.88;;;9.08;81.87
57594;BME280;43423;46.510;6.686;2024-03-17T03:21:00;96958.00;;;9.22;81.18
57594;BME280;43423;46.510;6.686;2024-03-17T03:23:26;96959.22;;;9.39;80.40
57594;BME280;43423;46.510;6.686;2024-03-17T03:25:55;96958.00;;;9.49;79.79
57594;BME280;43423;46.510;6.686;2024-03-17T03:28:23;96953.88;;;9.54;79.57
57594;BME280;43423;46.510;6.686;2024-03-17T03:30:48;96958.31;;;9.51;78.79
57594;BME280;43423;46.510;6.686;2024-03-17T03:33:14;96967.28;;;9.61;78.36
57594;BME280;43423;46.510;6.686;2024-03-17T03:35:40;96968.19;;;9.67;78.44
57594;BME280;43423;46.510;6.686;2024-03-17T03:38:05;96960.91;;;9.64;77.83
57594;BME280;43423;46.510;6.686;2024-03-17T03:40:31;96957.81;;;9.71;77.17
57594;BME280;43423;46.510;6.686;2024-03-17T03:42:58;96952.34;;;9.53;78.02
57594;BME280;43423;46.510;6.686;2024-03-17T03:45:23;96952.66;;;9.37;78.14
57594;BME280;43423;46.510;6.686;2024-03-17T03:47:50;96950.34;;;9.63;78.13
57594;BME280;43423;46.510;6.686;2024-03-17T03:50:19;96959.94;;;9.76;77.39
57594;BME280;43423;46.510;6.686;2024-03-17T03:52:44;96950.78;;;9.70;78.83
57594;BME280;43423;46.510;6.686;2024-03-17T03:55:11;96951.72;;;9.76;77.95
57594;BME280;43423;46.510;6.686;2024-03-17T03:57:41;96954.31;;;9.80;76.79
57594;BME280;43423;46.510;6.686;2024-03-17T04:00:08;96954.63;;;9.73;77.37
57594;BME280;43423;46.510;6.686;2024-03-17T04:02:40;96950.66;;;9.74;77.72
57594;BME280;43423;46.510;6.686;2024-03-17T04:05:06;96947.63;;;9.72;77.75
57594;BME280;43423;46.510;6.686;2024-03-17T04:07:33;96948.50;;;9.69;80.13
57594;BME280;43423;46.510;6.686;2024-03-17T04:10:00;96959.22;;;9.67;79.79
57594;BME280;43423;46.510;6.686;2024-03-17T04:12:26;96959.53;;;9.60;78.91
57594;BME280;43423;46.510;6.686;2024-03-17T04:14:53;96950.38;;;9.54;79.55
57594;BME280;43423;46.510;6.686;2024-03-17T04:17:19;96952.19;;;9.47;81.41
57594;BME280;43423;46.510;6.686;2024-03-17T04:19:50;96961.81;;;9.34;83.18
57594;BME280;43423;46.510;6.686;2024-03-17T04:22:16;96961.50;;;9.32;82.52
57594;BME280;43423;46.510;6.686;2024-03-17T04:24:45;96968.06;;;9.34;80.93
57594;BME280;43423;46.510;6.686;2024-03-17T04:27:12;96962.59;;;9.25;83.41
57594;BME280;43423;46.510;6.686;2024-03-17T04:29:39;96951.91;;;9.18;83.97
57594;BME280;43423;46.510;6.686;2024-03-17T04:32:06;96949.94;;;9.18;83.33
57594;BME280;43423;46.510;6.686;2024-03-17T04:34:32;96957.06;;;9.16;85.20
57594;BME280;43423;46.510;6.686;2024-03-17T04:36:58;96958.75;;;9.13;85.33
57594;BME280;43423;46.510;6.686;2024-03-17T04:39:24;96958.16;;;9.09;86.43
57594;BME280;43423;46.510;6.686;2024-03-17T04:41:50;96961.81;;;9.06;85.29
57594;BME280;43423;46.510;6.686;2024-03-17T04:44:17;96959.97;;;9.03;87.15
57594;BME280;43423;46.510;6.686;2024-03-17T04:46:43;96959.50;;;8.95;88.91
57594;BME280;43423;46.510;6.686;2024-03-17T04:49:08;96947.78;;;8.95;89.29
57594;BME280;43423;46.510;6.686;2024-03-17T04:51:34;96952.66;;;9.00;88.31
57594;BME280;43423;46.510;6.686;2024-03-17T04:54:01;96946.25;;;9.03;86.75
57594;BME280;43423;46.510;6.686;2024-03-17T04:56:29;96944.88;;;9.08;86.23
57594;BME280;43423;46.510;6.686;2024-03-17T04:58:55;96937.13;;;9.06;88.19
57594;BME280;43423;46.510;6.686;2024-03-17T05:01:21;96942.75;;;9.12;86.03
57594;BME280;43423;46.510;6.686;2024-03-17T05:03:46;96939.84;;;9.15;84.62
57594;BME280;43423;46.510;6.686;2024-03-17T05:06:12;96939.84;;;9.15;85.03
57594;BME280;43423;46.510;6.686;2024-03-17T05:08:38;96935.47;;;9.18;83.89
57594;BME280;43423;46.510;6.686;2024-03-17T05:11:05;96948.09;;;9.15;83.84
57594;BME280;43423;46.510;6.686;2024-03-17T05:13:32;96940.47;;;9.19;83.17
57594;BME280;43423;46.510;6.686;2024-03-17T05:15:59;96944.59;;;9.24;82.89
57594;BME280;43423;46.510;6.686;2024-03-17T05:18:25;96943.38;;;9.25;82.53
57594;BME280;43423;46.510;6.686;2024-03-17T05:21:00;96940.31;;;9.23;83.29
57594;BME280;43423;46.510;6.686;2024-03-17T05:23:30;96936.06;;;9.13;83.70
57594;BME280;43423;46.510;6.686;2024-03-17T05:25:58;96940.63;;;9.16;83.31
57594;BME280;43423;46.510;6.686;2024-03-17T05:28:24;96940.63;;;9.16;83.63
57594;BME280;43423;46.510;6.686;2024-03-17T05:30:50;96945.97;;;9.19;83.17
57594;BME280;43423;46.510;6.686;2024-03-17T05:33:20;96945.50;;;9.21;83.17
57594;BME280;43423;46.510;6.686;2024-03-17T05:35:50;96953.28;;;9.22;83.38
57594;BME280;43423;46.510;6.686;2024-03-17T05:38:22;96949.47;;;9.20;83.44
57594;BME280;43423;46.510;6.686;2024-03-17T05:40:55;96956.78;;;9.23;83.31
57594;BME280;43423;46.510;6.686;2024-03-17T05:43:23;96958.47;;;9.20;83.54
57594;BME280;43423;46.510;6.686;2024-03-17T05:45:59;96970.06;;;9.25;nan
57594;BME280;43423;46.510;6.686;2024-03-17T05:48:26;96967.78;;;9.32;84.62
57594;BME280;43423;46.510;6.686;2024-03-17T05:50:53;96971.28;;;9.33;84.52
57594;BME280;43423;46.510;6.686;2024-03-17T05:53:19;96961.06;;;9.33;84.87
57594;BME280;43423;46.510;6.686;2024-03-17T05:55:45;96963.47;;;9.31;85.37
57594;BME280;43423;46.510;6.686;2024-03-17T05:58:11;96964.72;;;9.30;85.81
57594;BME280;43423;46.510;6.686;2024-03-17T06:00:38;96962.72;;;9.31;86.38
57594;BME280;43423;46.510;6.686;2024-03-17T06:03:05;96963.47;;;9.31;87.33
57594;BME280;43423;46.510;6.686;2024-03-17T06:05:32;96969.44;;;9.30;86.04
57594;BME280;43423;46.510;6.686;2024-03-17T06:07:58;96965.94;;;9.38;86.03
57594;BME280;43423;46.510;6.686;2024-03-17T06:10:24;96974.31;;;9.35;86.14
57594;BME280;43423;46.510;6.686;2024-03-17T06:12:50;96969.31;;;9.33;87.36
57594;BME280;43423;46.510;6.686;2024-03-17T06:15:16;96971.88;;;9.37;86.48
57594;BME280;43423;46.510;6.686;2024-03-17T06:17:42;96964.56;;;9.43;87.59
57594;BME280;43423;46.510;6.686;2024-03-17T06:20:08;96973.41;;;9.29;91.43
57594;BME280;43423;46.510;6.686;2024-03-17T06:22:39;96979.53;;;9.33;91.00
57594;BME280;43423;46.510;6.686;2024-03-17T06:25:06;96985.00;;;9.42;90.90
57594;BME280;43423;46.510;6.686;2024-03-17T06:27:32;96978.28;;;9.43;88.36
57594;BME280;43423;46.510;6.686;2024-03-17T06:30:00;96984.84;;;9.45;88.05
57594;BME280;43423;46.510;6.686;2024-03-17T06:32:32;96981.03;;;9.43;89.21
57594;BME280;43423;46.510;6.686;2024-03-17T06:35:01;96982.09;;;9.45;91.40
57594;BME280;43423;46.510;6.686;2024-03-17T06:37:27;97002.41;;;9.48;90.99
57594;BME280;43423;46.510;6.686;2024-03-17T06:39:53;96993.69;;;9.49;90.48
57594;BME280;43423;46.510;6.686;2024-03-17T06:42:18;96997.50;;;9.52;89.86
57594;BME280;43423;46.510;6.686;2024-03-17T06:44:44;96997.34;;;9.56;88.94
57594;BME280;43423;46.510;6.686;2024-03-17T06:47:10;96998.72;;;9.60;89.35
57594;BME280;43423;46.510;6.686;2024-03-17T06:49:36;96992.47;;;9.60;90.31
57594;BME280;43423;46.510;6.686;2024-03-17T06:52:02;96988.03;;;9.62;90.44
57594;BME280;43423;46.510;6.686;2024-03-17T06:54:28;96985.59;;;9.64;90.37
57594;BME280;43423;46.510;6.686;2024-03-17T06:56:53;96975.38;;;9.65;91.22
57594;BME280;43423;46.510;6.686;2024-03-17T06:59:19;96984.69;;;9.67;92.10
57594;BME280;43423;46.510;6.686;2024-03-17T07:01:46;96988.03;;;9.62;90.88
57594;BME280;43423;46.510;6.686;2024-03-17T07:04:13;96997.94;;;9.69;91.97
57594;BME280;43423;46.510;6.686;2024-03-17T07:06:38;96996.59;;;9.64;91.00
57594;BME280;43423;46.510;6.686;2024-03-17T07:09:04;97001.16;;;9.67;90.29
57594;BME280;43423;46.510;6.686;2024-03-17T07:11:29;97002.97;;;9.61;91.34
57594;BME280;43423;46.510;6.686;2024-03-17T07:13:55;97001.75;;;9.62;90.86
57594;BME280;43423;46.510;6.686;2024-03-17T07:16:21;97002.97;;;9.61;91.64
57594;BME280;43423;46.510;6.686;2024-03-17T07:18:47;97003.91;;;9.67;90.83
57594;BME280;43423;46.510;6.686;2024-03-17T07:21:13;97007.41;;;9.68;90.96
57594;BME280;43423;46.510;6.686;2024-03-17T07:23:38;97024.63;;;9.68;90.72
57594;BME280;43423;46.510;6.686;2024-03-17T07:26:04;97020.09;;;9.56;92.08
57594;BME280;43423;46.510;6.686;2024-03-17T07:28:31;97015.66;;;9.68;93.61
57594;BME280;43423;46.510;6.686;2024-03-17T07:30:58;97021.91;;;9.41;99.17
57594;BME280;43423;46.510;6.686;2024-03-17T07:33:26;97016.38;;;9.04;100.00
57594;BME280;43423;46.510;6.686;2024-03-17T07:35:53;97023.06;;;8.94;100.00
57594;BME280;43423;46.510;6.686;2024-03-17T07:38:20;97026.19;;;9.51;100.00
57594;BME280;43423;46.510;6.686;2024-03-17T07:40:56;97028.28;;;9.38;100.00
57594;BME280;43423;46.510;6.686;2024-03-17T07:43:26;97037.63;;;9.40;100.00
57594;BME280;43423;46.510;6.686;2024-03-17T07:45:58;97038.66;;;9.61;100.00
57594;BME280;43423;46.510;6.686;2024-03-17T07:48:24;97042.63;;;9.69;100.00
57594;BME280;43423;46.510;6.686;2024-03-17T07:50:57;97041.28;;;9.65;100.00
57594;BME280;43423;46.510;6.686;2024-03-17T07:53:23;97028.91;;;9.42;100.00
57594;BME280;43423;46.510;6.686;2024-03-17T07:56:04;97029.84;;;9.48;100.00
57594;BME280;43423;46.510;6.686;2024-03-17T07:58:32;97035.00;;;9.46;100.00
57594;BME280;43423;46.510;6.686;2024-03-17T08:01:02;97028.88;;;9.14;100.00
57594;BME280;43423;46.510;6.686;2024-03-17T08:03:29;97031.03;;;9.19;100.00
57594;BME280;43423;46.510;6.686;2024-03-17T08:05:55;97030.13;;;9.41;100.00
57594;BME280;43423;46.510;6.686;2024-03-17T08:08:21;97042.94;;;9.26;100.00
57594;BME280;43423;46.510;6.686;2024-03-17T08:10:47;97044.16;;;9.34;100.00
57594;BME280;43423;46.510;6.686;2024-03-17T08:13:20;97042.47;;;9.55;100.00
57594;BME280;43423;46.510;6.686;2024-03-17T08:15:46;97040.19;;;9.62;100.00
57594;BME280;43423;46.510;6.686;2024-03-17T08:18:12;97037.47;;;9.81;100.00
57594;BME280;43423;46.510;6.686;2024-03-17T08:20:42;97046.94;;;9.79;100.00
57594;BME280;43423;46.510;6.686;2024-03-17T08:23:09;97037.44;;;9.53;100.00
57594;BME280;43423;46.510;6.686;2024-03-17T08:25:36;97036.53;;;9.38;100.00
57594;BME280;43423;46.510;6.686;2024-03-17T08:28:02;97043.09;;;9.59;100.00
57594;BME280;43423;46.510;6.686;2024-03-17T08:30:29;97038.66;;;9.61;100.00
57594;BME280;43423;46.510;6.686;2024-03-17T08:32:59;97032.59;;;9.66;100.00
57594;BME280;43423;46.510;6.686;2024-03-17T08:35:25;97039.31;;;9.56;100.00
57594;BME280;43423;46.510;6.686;2024-03-17T08:37:51;97026.47;;;9.71;100.00
57594;BME280;43423;46.510;6.686;2024-03-17T08:40:20;97024.03;;;9.83;100.00
57594;BME280;43423;46.510;6.686;2024-03-17T08:42:46;97021.25;;;9.92;100.00
57594;BME280;43423;46.510;6.686;2024-03-17T08:45:11;97015.78;;;9.83;100.00
57594;BME280;43423;46.510;6.686;2024-03-17T08:47:38;97011.53;;;9.72;100.00
57594;BME280;43423;46.510;6.686;2024-03-17T08:50:04;97008.63;;;9.67;100.00
57594;BME280;43423;46.510;6.686;2024-03-17T08:52:30;97006.94;;;9.78;100.00
57594;BME280;43423;46.510;6.686;2024-03-17T08:54:58;96995.50;;;9.52;100.00
57594;BME280;43423;46.510;6.686;2024-03-17T08:57:25;97003.59;;;9.65;100.00
57594;BME280;43423;46.510;6.686;2024-03-17T08:59:51;96996.56;;;9.83;100.00
57594;BME280;43423;46.510;6.686;2024-03-17T09:02:20;97005.56;;;9.74;100.00
57594;BME280;43423;46.510;6.686;2024-03-17T09:04:48;97015.03;;;9.82;100.00
57594;BME280;43423;46.510;6.686;2024-03-17T09:07:14;97022.81;;;9.74;100.00
57594;BME280;43423;46.510;6.686;2024-03-17T09:09:41;97026.78;;;9.64;100.00
57594;BME280;43423;46.510;6.686;2024-03-17T09:12:08;97032.88;;;9.68;100.00
57594;BME280;43423;46.510;6.686;2024-03-17T09:14:33;97024.63;;;9.77;100.00
57594;BME280;43423;46.510;6.686;2024-03-17T09:16:59;97020.69;;;9.88;100.00
57594;BME280;43423;46.510;6.686;2024-03-17T09:19:25;97024.31;;;9.94;100.00
57594;BME280;43423;46.510;6.686;2024-03-17T09:21:50;97020.69;;;9.88;100.00
57594;BME280;43423;46.510;6.686;2024-03-17T09:24:16;97010.91;;;9.96;100.00
57594;BME280;43423;46.510;6.686;2024-03-17T09:26:42;97022.84;;;9.56;100.00
57594;BME280;43423;46.510;6.686;2024-03-17T09:29:07;97014.56;;;9.29;100.00
57594;BME280;43423;46.510;6.686;2024-03-17T09:31:33;97013.81;;;9.37;100.00
57594;BME280;43423;46.510;6.686;2024-03-17T09:34:03;97000.84;;;9.47;100.00
57594;BME280;43423;46.510;6.686;2024-03-17T09:36:29;96995.97;;;9.60;100.00
57594;BME280;43423;46.510;6.686;2024-03-17T09:38:56;96996.13;;;9.75;100.00
57594;BME280;43423;46.510;6.686;2024-03-17T09:41:25;96999.31;;;9.83;100.00
57594;BME280;43423;46.510;6.686;2024-03-17T09:43:56;96989.66;;;9.87;100.00
57594;BME280;43423;46.510;6.686;2024-03-17T09:46:26;96981.00;;;9.89;100.00
57594;BME280;43423;46.510;6.686;2024-03-17T09:48:53;96980.66;;;9.87;100.00
57594;BME280;43423;46.510;6.686;2024-03-17T09:51:24;96980.97;;;9.98;100.00
57594;BME280;43423;46.510;6.686;2024-03-17T09:53:50;96980.63;;;10.23;100.00
57594;BME280;43423;46.510;6.686;2024-03-17T09:56:18;96972.63;;;10.34;100.00
57594;BME280;43423;46.510;6.686;2024-03-17T09:58:48;96985.03;;;10.21;100.00
57594;BME280;43423;46.510;6.686;2024-03-17T10:01:14;96994.19;;;10.18;99.97
57594;BME280;43423;46.510;6.686;2024-03-17T10:06:15;96988.75;;;9.99;98.66
57594;BME280;43423;46.510;6.686;2024-03-17T10:08:47;96986.63;;;10.03;97.94
57594;BME280;43423;46.510;6.686;2024-03-17T10:11:18;96982.44;;;10.17;99.19
57594;BME280;43423;46.510;6.686;2024-03-17T10:13:44;96987.47;;;10.19;99.13
57594;BME280;43423;46.510;6.686;2024-03-17T10:16:22;96980.72;;;10.38;98.82
57594;BME280;43423;46.510;6.686;2024-03-17T10:18:48;96979.03;;;10.41;96.76
57594;BME280;43423;46.510;6.686;2024-03-17T10:21:41;96984.66;;;10.46;93.88
57594;BME280;43423;46.510;6.686;2024-03-17T10:24:12;96982.47;;;10.59;91.57
57594;BME280;43423;46.510;6.686;2024-03-17T10:26:42;96975.00;;;10.84;93.29
57594;BME280;43423;46.510;6.686;2024-03-17T10:31:59;96976.06;;;10.86;89.79
57594;BME280;43423;46.510;6.686;2024-03-17T10:34:28;96977.59;;;10.54;90.41
57594;BME280;43423;46.510;6.686;2024-03-17T10:39:28;96966.00;;;10.83;87.28
57594;BME280;43423;46.510;6.686;2024-03-17T10:42:01;96969.66;;;11.04;87.48
57594;BME280;43423;46.510;6.686;2024-03-17T10:44:32;96966.69;;;11.17;84.78
57594;BME280;43423;46.510;6.686;2024-03-17T10:46:59;96965.09;;;11.01;85.99
57594;BME280;43423;46.510;6.686;2024-03-17T10:49:31;96967.38;;;11.03;84.91
57594;BME280;43423;46.510;6.686;2024-03-17T10:52:12;96953.09;;;10.89;88.06
57594;BME280;43423;46.510;6.686;2024-03-17T10:54:40;96951.63;;;11.03;87.75
57594;BME280;43423;46.510;6.686;2024-03-17T11:00:03;96939.31;;;10.99;84.66
57594;BME280;43423;46.510;6.686;2024-03-17T11:02:31;96929.22;;;10.96;85.13
57594;BME280;43423;46.510;6.686;2024-03-17T11:05:00;96927.00;;;11.09;84.15
57594;BME280;43423;46.510;6.686;2024-03-17T11:07:26;96932.91;;;10.93;82.38
57594;BME280;43423;46.510;6.686;2024-03-17T11:09:55;96933.97;;;10.95;84.50
57594;BME280;43423;46.510;6.686;2024-03-17T11:17:48;96930.09;;;11.40;83.76
57594;BME280;43423;46.510;6.686;2024-03-17T11:20:16;96926.88;;;11.42;84.51
57594;BME280;43423;46.510;6.686;2024-03-17T11:22:45;96917.28;;;11.67;82.00
57594;BME280;43423;46.510;6.686;2024-03-17T11:38:57;96916.25;;;11.79;80.86
57594;BME280;43423;46.510;6.686;2024-03-17T11:41:40;96910.84;;;11.99;79.19
57594;BME280;43423;46.510;6.686;2024-03-17T11:44:32;96916.56;;;11.96;78.21
57594;BME280;43423;46.510;6.686;2024-03-17T11:49:30;96906.03;;;11.94;75.24
57594;BME280;43423;46.510;6.686;2024-03-17T11:51:57;96914.75;;;11.78;76.26
57594;BME280;43423;46.510;6.686;2024-03-17T11:54:27;96922.94;;;11.87;76.03
57594;BME280;43423;46.510;6.686;2024-03-17T11:56:55;96923.28;;;11.51;76.39
57594;BME280;43423;46.510;6.686;2024-03-17T11:59:22;96914.25;;;11.65;75.35
57594;BME280;43423;46.510;6.686;2024-03-17T12:01:49;96912.06;;;11.69;76.59
57594;BME280;43423;46.510;6.686;2024-03-17T12:04:18;96908.75;;;11.80;75.45
57594;BME280;43423;46.510;6.686;2024-03-17T12:07:07;96891.19;;;11.92;75.62
57594;BME280;43423;46.510;6.686;2024-03-17T12:09:35;96897.56;;;11.83;76.39
57594;BME280;43423;46.510;6.686;2024-03-17T12:12:05;96891.09;;;12.01;76.30
57594;BME280;43423;46.510;6.686;2024-03-17T12:14:32;96896.31;;;11.99;75.31
57594;BME280;43423;46.510;6.686;2024-03-17T12:17:03;96888.75;;;11.94;71.74
57594;BME280;43423;46.510;6.686;2024-03-17T12:19:29;96889.31;;;11.83;71.29
57594;BME280;43423;46.510;6.686;2024-03-17T12:21:57;96879.25;;;11.80;72.11
57594;BME280;43423;46.510;6.686;2024-03-17T12:24:24;96876.94;;;11.79;73.74
57594;BME280;43423;46.510;6.686;2024-03-17T12:26:51;96872.94;;;11.65;72.23
57594;BME280;43423;46.510;6.686;2024-03-17T12:31:54;96875.91;;;11.46;73.38
57594;BME280;43423;46.510;6.686;2024-03-17T12:34:21;96864.00;;;11.26;73.50
57594;BME280;43423;46.510;6.686;2024-03-17T12:36:48;96862.97;;;11.38;74.09
57594;BME280;43423;46.510;6.686;2024-03-17T12:39:28;96864.84;;;11.17;73.50
57594;BME280;43423;46.510;6.686;2024-03-17T12:42:13;96861.91;;;11.35;75.19
57594;BME280;43423;46.510;6.686;2024-03-17T12:47:19;96864.66;;;11.35;73.19
57594;BME280;43423;46.510;6.686;2024-03-17T12:49:51;96858.78;;;11.42;74.08
57594;BME280;43423;46.510;6.686;2024-03-17T12:57:45;96840.56;;;11.15;74.06
57594;BME280;43423;46.510;6.686;2024-03-17T13:00:30;96843.13;;;11.34;74.58
57594;BME280;43423;46.510;6.686;2024-03-17T13:03:06;96851.59;;;11.30;73.72
57594;BME280;43423;46.510;6.686;2024-03-17T13:05:35;96855.66;;;11.35;74.65
57594;BME280;43423;46.510;6.686;2024-03-17T13:08:02;96849.75;;;11.12;74.92
57594;BME280;43423;46.510;6.686;2024-03-17T13:10:30;96846.53;;;11.14;74.98
57594;BME280;43423;46.510;6.686;2024-03-17T13:13:08;96853.78;;;10.87;76.32
57594;BME280;43423;46.510;6.686;2024-03-17T13:15:35;96848.09;;;10.91;75.73
57594;BME280;43423;46.510;6.686;2024-03-17T13:18:04;96845.34;;;11.06;75.13
57594;BME280;43423;46.510;6.686;2024-03-17T13:20:31;96837.59;;;11.19;75.51
57594;BME280;43423;46.510;6.686;2024-03-17T13:22:58;96829.81;;;11.17;75.12
57594;BME280;43423;46.510;6.686;2024-03-17T13:25:27;96823.94;;;11.25;76.06
57594;BME280;43423;46.510;6.686;2024-03-17T13:27:55;96818.25;;;11.43;75.59
57594;BME280;43423;46.510;6.686;2024-03-17T13:30:22;96813.13;;;11.51;74.60
57594;BME280;43423;46.510;6.686;2024-03-17T13:32:50;96806.38;;;11.52;76.05
57594;BME280;43423;46.510;6.686;2024-03-17T13:35:22;96811.69;;;11.55;76.36
57594;BME280;43423;46.510;6.686;2024-03-17T13:37:49;96799.06;;;11.49;76.59
57594;BME280;43423;46.510;6.686;2024-03-17T13:40:17;96799.13;;;11.69;74.90
57594;BME280;43423;46.510;6.686;2024-03-17T13:42:44;96795.81;;;11.65;74.69
57594;BME280;43423;46.510;6.686;2024-03-17T13:45:13;96797.53;;;11.77;73.55
57594;BME280;43423;46.510;6.686;2024-03-17T13:47:40;96794.84;;;11.68;74.35
57594;BME280;43423;46.510;6.686;2024-03-17T13:50:07;96787.28;;;11.63;76.26
57594;BME280;43423;46.510;6.686;2024-03-17T13:52:40;96787.09;;;11.66;75.88